createdAt,value
2023-08-21T00:02:00.351Z,29.00
2023-08-21T00:04:27.825Z,29.00
2023-08-21T00:06:55.285Z,29.10
2023-08-21T00:09:22.725Z,29.10
2023-08-21T00:11:50.268Z,29.00
2023-08-21T00:14:17.755Z,29.10
2023-08-21T00:16:45.185Z,28.80
2023-08-21T00:19:13.312Z,29.10
2023-08-21T00:21:40.809Z,29.10
2023-08-21T00:24:08.323Z,29.00
2023-08-21T00:26:35.761Z,29.00
2023-08-21T00:29:03.273Z,28.80
2023-08-21T00:31:30.625Z,28.90
2023-08-21T00:33:58.131Z,29.00
2023-08-21T00:36:25.546Z,28.60
2023-08-21T00:38:53.023Z,28.90
2023-08-21T00:41:20.626Z,28.80
2023-08-21T00:43:48.184Z,28.60
2023-08-21T00:46:17.072Z,28.50
2023-08-21T00:48:45.746Z,28.50
2023-08-21T00:51:16.776Z,28.50
2023-08-21T00:53:45.704Z,28.70
2023-08-21T00:56:14.801Z,28.50
2023-08-21T00:58:42.819Z,28.70
2023-08-21T01:01:10.428Z,28.50
2023-08-21T01:03:37.984Z,28.60
2023-08-21T01:06:05.482Z,28.60
2023-08-21T01:08:43.715Z,28.60
2023-08-21T01:11:14.305Z,28.60
2023-08-21T01:13:44.859Z,28.40
2023-08-21T01:16:15.198Z,28.40
2023-08-21T01:18:44.531Z,28.60
2023-08-21T01:21:13.185Z,28.40
2023-08-21T01:23:43.518Z,28.40
2023-08-21T01:26:11.137Z,28.30
2023-08-21T01:28:39.041Z,28.60
2023-08-21T01:31:32.386Z,28.50
2023-08-21T01:34:05.584Z,28.50
2023-08-21T01:36:33.701Z,28.50
2023-08-21T01:39:01.253Z,28.40
2023-08-21T01:41:28.733Z,28.40
2023-08-21T01:43:56.216Z,28.30
2023-08-21T01:46:23.832Z,28.20
2023-08-21T01:48:51.300Z,28.30
2023-08-21T01:51:18.794Z,28.20
2023-08-21T01:53:46.274Z,28.30
2023-08-21T01:56:13.727Z,28.30
2023-08-21T01:58:41.388Z,28.50
2023-08-21T02:01:08.875Z,28.00
2023-08-21T02:03:37.094Z,27.50
2023-08-21T02:06:05.002Z,27.40
2023-08-21T02:08:35.037Z,27.40
2023-08-21T02:11:02.905Z,27.80
2023-08-21T02:13:30.520Z,27.90
2023-08-21T02:15:57.964Z,28.00
2023-08-21T02:18:25.523Z,28.20
2023-08-21T02:20:52.928Z,27.90
2023-08-21T02:23:20.442Z,28.20
2023-08-21T02:25:47.930Z,28.00
2023-08-21T02:28:15.389Z,28.10
2023-08-21T02:30:43.226Z,28.00
2023-08-21T02:33:10.746Z,27.80
2023-08-21T02:35:40.103Z,28.00
2023-08-21T02:38:07.538Z,28.10
2023-08-21T02:40:37.332Z,27.90
2023-08-21T02:43:05.787Z,28.00
2023-08-21T02:45:33.263Z,27.80
2023-08-21T02:48:00.836Z,28.00
2023-08-21T02:50:28.332Z,27.60
2023-08-21T02:52:55.916Z,27.40
2023-08-21T02:55:23.421Z,27.00
2023-08-21T02:57:50.861Z,27.00
2023-08-21T03:00:18.558Z,27.40
2023-08-21T03:02:46.086Z,27.60
2023-08-21T03:05:14.444Z,27.50
2023-08-21T03:07:42.351Z,27.70
2023-08-21T03:10:10.274Z,27.60
2023-08-21T03:12:38.154Z,27.60
2023-08-21T03:15:06.927Z,27.90
2023-08-21T03:17:34.409Z,27.90
2023-08-21T03:20:02.255Z,27.60
2023-08-21T03:22:29.880Z,27.70
2023-08-21T03:24:57.373Z,28.00
2023-08-21T03:27:25.910Z,27.70
2023-08-21T03:29:53.394Z,27.70
2023-08-21T03:32:20.919Z,27.60
2023-08-21T03:34:48.559Z,27.90
2023-08-21T03:37:16.076Z,27.50
2023-08-21T03:39:44.339Z,27.20
2023-08-21T03:42:12.651Z,26.90
2023-08-21T03:44:40.949Z,26.90
2023-08-21T03:47:08.945Z,26.90
2023-08-21T03:49:45.446Z,27.40
2023-08-21T03:52:12.930Z,27.50
2023-08-21T03:54:40.348Z,27.50
2023-08-21T03:57:08.437Z,27.40
2023-08-21T03:59:35.812Z,27.40
2023-08-21T04:02:03.265Z,27.40
2023-08-21T04:04:30.761Z,27.10
2023-08-21T04:06:58.174Z,26.80
2023-08-21T04:09:25.653Z,26.90
2023-08-21T04:11:53.056Z,26.70
2023-08-21T04:14:20.460Z,27.20
2023-08-21T04:16:48.710Z,27.40
2023-08-21T04:19:16.069Z,27.50
2023-08-21T04:21:43.512Z,27.20
2023-08-21T04:24:10.951Z,27.20
2023-08-21T04:26:38.441Z,27.40
2023-08-21T04:29:05.965Z,27.10
2023-08-21T04:31:33.819Z,27.00
2023-08-21T04:34:01.356Z,26.60
2023-08-21T04:36:29.300Z,26.60
2023-08-21T04:38:58.171Z,26.70
2023-08-21T04:41:25.572Z,26.60
2023-08-21T04:43:52.941Z,26.60
2023-08-21T04:46:21.148Z,26.80
2023-08-21T04:48:48.999Z,26.90
2023-08-21T04:51:16.992Z,26.90
2023-08-21T04:53:44.857Z,26.60
2023-08-21T04:56:17.060Z,26.60
2023-08-21T04:58:44.921Z,26.90
2023-08-21T05:01:13.321Z,26.90
2023-08-21T05:03:45.364Z,26.90
2023-08-21T05:06:13.243Z,26.80
2023-08-21T05:08:41.002Z,26.90
2023-08-21T05:11:09.772Z,26.80
2023-08-21T05:13:38.764Z,27.00
2023-08-21T05:16:09.755Z,27.00
2023-08-21T05:18:39.139Z,26.70
2023-08-21T05:21:06.566Z,26.70
2023-08-21T05:23:34.079Z,26.70
2023-08-21T05:26:05.584Z,27.00
2023-08-21T05:28:34.378Z,26.80
2023-08-21T05:31:01.855Z,27.00
2023-08-21T05:33:37.372Z,27.00
2023-08-21T05:36:05.889Z,26.80
2023-08-21T05:38:33.833Z,26.90
2023-08-21T05:41:02.124Z,27.00
2023-08-21T05:43:30.032Z,27.10
2023-08-21T05:45:58.794Z,27.10
2023-08-21T05:48:26.307Z,27.10
2023-08-21T05:50:54.056Z,27.10
2023-08-21T05:53:21.886Z,27.20
2023-08-21T05:55:49.551Z,27.40
2023-08-21T05:58:17.161Z,27.30
2023-08-21T06:00:45.565Z,27.50
2023-08-21T06:03:13.193Z,27.20
2023-08-21T06:06:06.887Z,27.50
2023-08-21T06:08:34.375Z,27.40
2023-08-21T06:11:01.876Z,27.70
2023-08-21T06:13:29.532Z,27.50
2023-08-21T06:15:57.711Z,27.50
2023-08-21T06:18:26.629Z,27.60
2023-08-21T06:20:56.367Z,27.70
2023-08-21T06:23:24.136Z,27.80
2023-08-21T06:25:52.162Z,28.00
2023-08-21T06:28:22.202Z,27.80
2023-08-21T06:30:58.283Z,28.10
2023-08-21T06:33:26.391Z,28.20
2023-08-21T06:35:55.771Z,28.10
2023-08-21T06:38:23.155Z,28.40
2023-08-21T06:40:51.792Z,28.40
2023-08-21T06:43:20.102Z,28.50
2023-08-21T06:45:48.666Z,28.30
2023-08-21T06:48:16.144Z,28.60
2023-08-21T06:50:43.635Z,28.60
2023-08-21T06:53:11.010Z,28.70
2023-08-21T06:55:38.422Z,28.70
2023-08-21T06:58:05.852Z,28.80
2023-08-21T07:00:33.402Z,28.80
2023-08-21T07:03:00.967Z,29.10
2023-08-21T07:05:28.424Z,29.00
2023-08-21T07:07:56.433Z,29.10
2023-08-21T07:10:23.877Z,29.40
2023-08-21T07:12:51.288Z,29.50
2023-08-21T07:15:18.789Z,29.70
2023-08-21T07:17:47.300Z,30.00
2023-08-21T07:20:14.724Z,29.80
2023-08-21T07:22:42.132Z,30.10
2023-08-21T07:25:09.845Z,30.40
2023-08-21T07:27:37.351Z,30.50
2023-08-21T07:30:06.250Z,30.50
2023-08-21T07:32:33.990Z,30.80
2023-08-21T07:35:01.490Z,30.80
2023-08-21T07:37:29.002Z,31.00
2023-08-21T07:39:58.910Z,31.00
2023-08-21T07:42:26.402Z,31.10
2023-08-21T07:44:54.013Z,31.20
2023-08-21T07:47:21.438Z,31.40
2023-08-21T07:49:48.880Z,31.50
2023-08-21T07:52:17.235Z,31.60
2023-08-21T07:54:44.674Z,31.70
2023-08-21T07:57:12.299Z,31.90
2023-08-21T07:59:39.754Z,32.10
2023-08-21T08:02:07.104Z,32.10
2023-08-21T08:04:34.460Z,32.40
2023-08-21T08:07:02.398Z,32.50
2023-08-21T08:09:29.927Z,32.70
2023-08-21T08:11:57.717Z,32.70
2023-08-21T08:14:25.088Z,32.80
2023-08-21T08:16:52.830Z,32.70
2023-08-21T08:19:20.352Z,33.00
2023-08-21T08:21:47.780Z,32.80
2023-08-21T08:24:15.227Z,32.70
2023-08-21T08:26:44.118Z,32.70
2023-08-21T08:29:11.581Z,33.00
2023-08-21T08:31:40.253Z,33.10
2023-08-21T08:34:07.728Z,33.50
2023-08-21T08:36:36.001Z,33.50
2023-08-21T08:39:03.696Z,33.50
2023-08-21T08:41:55.268Z,34.00
2023-08-21T08:44:26.112Z,34.50
2023-08-21T08:46:53.825Z,34.70
2023-08-21T08:49:23.184Z,35.40
2023-08-21T08:51:52.556Z,35.30
2023-08-21T08:54:21.731Z,35.20
2023-08-21T08:56:49.933Z,35.50
2023-08-21T08:59:17.624Z,36.50
2023-08-21T09:01:45.119Z,37.20
2023-08-21T09:04:13.069Z,36.70
2023-08-21T09:06:40.646Z,36.60
2023-08-21T09:09:11.603Z,36.40
2023-08-21T09:11:44.489Z,35.80
2023-08-21T09:14:12.777Z,35.90
2023-08-21T09:17:10.248Z,36.40
2023-08-21T09:19:38.063Z,38.00
2023-08-21T09:22:17.556Z,38.50
2023-08-21T09:25:15.079Z,38.70
2023-08-21T09:27:42.676Z,38.40
2023-08-21T09:30:11.210Z,38.10
2023-08-21T09:32:54.711Z,37.40
2023-08-21T09:35:22.970Z,37.30
2023-08-21T20:14:59.850Z,36.70
2023-08-21T20:17:29.637Z,32.00
2023-08-21T20:19:57.170Z,31.70
2023-08-21T20:22:24.650Z,31.70
2023-08-21T20:24:53.180Z,31.60
2023-08-21T20:27:20.598Z,31.60
2023-08-21T20:29:47.980Z,31.50
